Time;durP1;ratioP1;P1;durP2;ratioP2;P2;SDS_P1;SDS_P2;PMS_P1;PMS_P2;Temp;Humidity;BMP_temperature;BMP_pressure;BME280_temperature;BME280_humidity;BME280_pressure;Samples;Min_cycle;Max_cycle;Signal;HPM_P1;HPM_P2
2022/03/06 00:01:13;;;;;;;19.90;12.37;;;;;;;2.53;34.94;101213.03;10303520;28;20229;-87
2022/03/06 00:06:16;;;;;;;22.77;13.90;;;;;;;2.49;35.02;101217.47;10318468;28;20237;-83
2022/03/06 00:11:18;;;;;;;21.73;13.27;;;;;;;2.66;35.06;101206.94;10303661;28;20637;-87
2022/03/06 00:16:21;;;;;;;22.97;13.80;;;;;;;2.37;35.37;101214.91;10322801;28;20265;-87
2022/03/06 00:21:23;;;;;;;21.47;13.60;;;;;;;2.20;34.97;101215.09;10308932;28;20618;-83
2022/03/06 00:26:26;;;;;;;24.23;13.50;;;;;;;2.29;35.20;101206.25;10326720;28;20226;-87
2022/03/06 00:31:28;;;;;;;20.00;13.30;;;;;;;2.37;35.49;101216.88;10310149;28;20615;-84
2022/03/06 00:36:31;;;;;;;22.63;13.47;;;;;;;2.15;35.22;101223.47;10310235;28;20307;-87
2022/03/06 00:41:35;;;;;;;23.33;14.00;;;;;;;2.30;35.35;101219.09;10330220;28;20225;-86
2022/03/06 00:46:37;;;;;;;24.07;14.80;;;;;;;2.30;35.10;101224.66;10330036;28;20233;-88
2022/03/06 00:51:39;;;;;;;21.40;14.03;;;;;;;1.77;36.08;101232.09;10327029;28;20257;-87
2022/03/06 00:56:41;;;;;;;22.27;13.60;;;;;;;2.17;35.45;101240.75;10340105;28;20267;-85
2022/03/06 01:01:44;;;;;;;22.03;13.53;;;;;;;2.40;34.74;101238.66;10332961;28;20202;-87
2022/03/06 01:06:47;;;;;;;23.93;13.47;;;;;;;2.20;35.31;101237.41;10334688;28;20838;-89
2022/03/06 01:11:49;;;;;;;20.40;12.83;;;;;;;1.73;35.97;101247.69;10332675;28;20265;-85
2022/03/06 01:16:52;;;;;;;20.77;13.97;;;;;;;2.01;35.65;101244.56;10329819;28;20229;-87
2022/03/06 01:21:54;;;;;;;20.37;13.37;;;;;;;1.98;35.64;101250.69;10333104;28;20210;-81
2022/03/06 01:26:56;;;;;;;29.43;13.90;;;;;;;1.97;35.64;101260.16;10316256;28;20229;-88
2022/03/06 01:31:58;;;;;;;21.30;13.60;;;;;;;1.27;36.85;101266.75;10332058;28;20280;-89
2022/03/06 01:37:01;;;;;;;21.03;14.17;;;;;;;1.97;35.56;101265.72;10332093;28;20197;-88
2022/03/06 01:42:05;;;;;;;22.17;13.87;;;;;;;1.73;35.98;101270.81;10332110;28;20241;-87
2022/03/06 01:47:07;;;;;;;20.10;13.10;;;;;;;1.74;36.16;101280.88;10332379;28;20260;-87
2022/03/06 01:52:09;;;;;;;19.77;12.20;;;;;;;1.85;35.71;101273.41;10332463;28;20249;-84
2022/03/06 01:57:11;;;;;;;18.13;12.27;;;;;;;1.66;36.12;101277.69;10331967;28;20201;-83
2022/03/06 02:02:13;;;;;;;21.73;12.87;;;;;;;1.43;36.40;101284.47;10332255;28;20198;-88
2022/03/06 02:07:16;;;;;;;19.30;12.73;;;;;;;1.82;36.00;101280.38;10314591;28;20263;-87
2022/03/06 02:12:24;;;;;;;21.07;12.47;;;;;;;1.97;35.36;101282.47;10330218;28;20643;-84
2022/03/06 02:17:26;;;;;;;19.00;11.50;;;;;;;1.93;35.42;101278.53;10330252;28;20253;-85
2022/03/06 02:22:31;;;;;;;21.47;13.13;;;;;;;1.62;35.85;101273.78;10330233;28;20257;-88
2022/03/06 02:27:33;;;;;;;19.10;11.73;;;;;;;1.61;36.22;101277.69;10326116;28;20544;-78
2022/03/06 02:32:37;;;;;;;21.50;12.57;;;;;;;1.72;36.12;101273.88;10309414;28;20257;-78
2022/03/06 02:37:40;;;;;;;17.27;11.70;;;;;;;1.82;35.88;101260.84;10310967;28;20242;-78
2022/03/06 02:42:45;;;;;;;17.00;11.33;;;;;;;1.53;36.38;101263.09;10324776;28;20280;-78
2022/03/06 02:47:48;;;;;;;18.10;11.43;;;;;;;1.39;36.40;101267.47;10324801;28;20233;-78
2022/03/06 02:52:52;;;;;;;20.03;10.77;;;;;;;1.56;36.31;101265.38;10328727;28;20265;-78
2022/03/06 02:57:54;;;;;;;19.47;11.87;;;;;;;1.64;36.22;101266.00;10311507;28;20210;-78
2022/03/06 03:02:56;;;;;;;18.83;11.20;;;;;;;1.35;36.49;101268.25;10331787;28;20221;-79
2022/03/06 03:07:59;;;;;;;20.67;12.50;;;;;;;1.53;36.45;101254.75;10336446;28;20198;-80
2022/03/06 03:13:01;;;;;;;19.50;11.53;;;;;;;1.14;37.56;101256.03;10336031;28;20697;-79
2022/03/06 03:18:03;;;;;;;18.47;12.20;;;;;;;0.95;37.83;101255.56;10339165;28;20202;-80
2022/03/06 03:23:06;;;;;;;17.27;11.87;;;;;;;1.33;37.42;101262.09;10333544;28;20202;-78
2022/03/06 03:28:08;;;;;;;19.23;12.27;;;;;;;1.17;37.59;101266.66;10335637;28;20206;-78
2022/03/06 03:33:10;;;;;;;20.03;12.73;;;;;;;1.43;37.40;101253.81;10336355;28;20295;-78
2022/03/06 03:38:13;;;;;;;19.97;12.23;;;;;;;1.84;36.46;101255.84;10335394;28;20250;-78
2022/03/06 03:43:15;;;;;;;18.37;12.30;;;;;;;1.32;37.80;101258.47;10334263;28;20210;-80
2022/03/06 03:48:17;;;;;;;19.47;12.37;;;;;;;1.85;36.63;101268.72;10334855;28;20542;-80
2022/03/06 03:53:20;;;;;;;20.43;12.97;;;;;;;1.82;36.98;101268.38;10334514;28;20307;-80
2022/03/06 03:58:22;;;;;;;18.50;11.53;;;;;;;1.04;38.22;101273.50;10340062;28;20603;-80
2022/03/06 04:03:24;;;;;;;20.73;13.00;;;;;;;1.54;37.05;101284.28;10336807;28;20206;-78
2022/03/06 04:08:27;;;;;;;17.77;12.30;;;;;;;1.49;37.53;101287.06;10336663;28;20202;-78
2022/03/06 04:13:29;;;;;;;19.30;11.60;;;;;;;1.87;36.68;101293.53;10335896;28;20554;-78
2022/03/06 04:18:31;;;;;;;17.03;11.47;;;;;;;1.80;36.58;101290.09;10334908;28;20233;-78
2022/03/06 04:23:34;;;;;;;16.13;11.53;;;;;;;1.88;36.50;101295.22;10319752;28;20599;-80
2022/03/06 04:28:36;;;;;;;18.63;11.53;;;;;;;1.43;36.94;101302.03;10335724;28;20268;-79
2022/03/06 04:33:39;;;;;;;19.57;12.17;;;;;;;1.59;36.60;101299.41;10328370;28;20303;-79
2022/03/06 04:38:41;;;;;;;16.33;11.53;;;;;;;1.53;37.09;101304.06;10332514;28;20590;-79
2022/03/06 04:43:43;;;;;;;14.13;11.23;;;;;;;1.55;36.95;101310.22;10332206;28;20210;-79
2022/03/06 04:48:45;;;;;;;14.30;9.90;;;;;;;1.51;36.51;101318.28;10334826;28;20256;-87
2022/03/06 04:53:48;;;;;;;14.53;11.17;;;;;;;1.32;36.80;101316.97;10336773;28;20307;-88
2022/03/06 04:58:50;;;;;;;16.70;11.03;;;;;;;1.84;36.10;101321.91;10332598;28;20214;-88
2022/03/06 05:03:53;;;;;;;13.17;10.00;;;;;;;1.91;35.98;101315.03;10327803;28;20499;-87
2022/03/06 05:08:55;;;;;;;14.90;10.30;;;;;;;1.60;36.45;101320.59;10323092;28;20307;-89
2022/03/06 05:13:57;;;;;;;16.03;10.43;;;;;;;1.58;36.32;101320.84;10341256;28;20234;-88
2022/03/06 05:19:00;;;;;;;17.10;10.93;;;;;;;1.52;36.40;101317.16;10320874;28;20210;-87
2022/03/06 05:24:03;;;;;;;13.67;10.27;;;;;;;1.87;35.71;101308.31;10361966;28;20786;-88
2022/03/06 05:29:06;;;;;;;17.17;10.80;;;;;;;1.33;36.35;101312.22;10352124;28;20506;-88
2022/03/06 05:34:08;;;;;;;14.23;10.03;;;;;;;1.44;36.20;101306.50;10324751;28;20198;-88
2022/03/06 05:39:11;;;;;;;16.63;11.03;;;;;;;1.42;36.30;101316.22;10334721;28;20206;-79
2022/03/06 05:44:13;;;;;;;16.23;10.97;;;;;;;1.51;36.14;101318.28;10329665;28;20230;-88
2022/03/06 05:49:16;;;;;;;15.93;10.80;;;;;;;1.59;35.77;101324.47;10332658;28;20272;-87
2022/03/06 05:54:18;;;;;;;13.77;10.27;;;;;;;1.55;35.34;101336.16;10334324;28;20198;-87
2022/03/06 05:59:20;;;;;;;17.30;9.47;;;;;;;1.63;35.51;101339.56;10332535;28;20225;-88
2022/03/06 06:04:23;;;;;;;14.47;10.47;;;;;;;1.32;36.19;101347.59;10330337;28;20594;-85
2022/03/06 06:09:25;;;;;;;13.67;10.40;;;;;;;1.41;36.07;101357.19;10339771;28;20210;-85
2022/03/06 06:14:27;;;;;;;15.03;10.63;;;;;;;1.14;36.09;101375.78;10337856;28;20300;-87
2022/03/06 06:19:30;;;;;;;14.07;9.67;;;;;;;1.09;36.40;101381.31;10297570;28;20206;-88
2022/03/06 06:24:37;;;;;;;13.93;10.20;;;;;;;0.98;36.79;101385.91;10319758;28;20194;-88
2022/03/06 06:29:39;;;;;;;12.23;9.37;;;;;;;1.24;36.20;101383.47;10307777;28;20250;-87
2022/03/06 06:34:44;;;;;;;14.67;11.00;;;;;;;1.20;36.26;101388.69;10306380;28;20230;-88
2022/03/06 06:39:47;;;;;;;14.80;10.40;;;;;;;0.74;37.07;101396.47;10331097;28;20291;-87
2022/03/06 06:44:50;;;;;;;16.47;10.73;;;;;;;1.23;36.57;101399.31;10316489;28;20315;-89
2022/03/06 06:49:53;;;;;;;14.70;10.47;;;;;;;1.03;36.69;101404.63;10309190;28;20260;-86
2022/03/06 06:54:56;;;;;;;14.73;10.70;;;;;;;1.07;36.55;101400.22;10327850;28;20292;-88
2022/03/06 06:59:58;;;;;;;13.70;10.43;;;;;;;1.53;35.77;101405.22;10295846;28;20252;-87
2022/03/06 07:05:01;;;;;;;13.73;10.27;;;;;;;1.04;36.49;101414.66;10331398;28;20255;-87
2022/03/06 07:10:05;;;;;;;15.67;10.63;;;;;;;1.80;35.47;101410.81;10347810;28;20629;-88
2022/03/06 07:15:09;;;;;;;12.10;9.50;;;;;;;1.71;35.56;101408.78;10344579;28;20699;-87
2022/03/06 07:20:13;;;;;;;16.70;10.47;;;;;;;2.09;35.05;101419.78;10332371;28;20232;-88
2022/03/06 07:25:20;;;;;;;15.03;9.73;;;;;;;2.15;34.56;101424.31;10338370;28;20595;-86
2022/03/06 07:30:23;;;;;;;13.37;10.07;;;;;;;1.94;35.31;101433.56;10337083;28;20242;-88
2022/03/06 07:35:27;;;;;;;13.60;9.90;;;;;;;2.15;34.82;101438.28;10359304;28;20197;-88
2022/03/06 07:40:32;;;;;;;13.03;9.83;;;;;;;2.02;35.53;101438.69;10375379;28;20225;-86
2022/03/06 07:45:41;;;;;;;14.67;9.83;;;;;;;2.08;34.96;101451.56;10350191;28;20210;-87
2022/03/06 07:50:46;;;;;;;11.90;9.20;;;;;;;2.11;35.04;101450.22;10357209;28;20234;-87
2022/03/06 07:55:49;;;;;;;13.00;9.93;;;;;;;0.75;36.94;101476.03;10345393;28;20214;-89
2022/03/06 08:00:58;;;;;;;12.90;9.80;;;;;;;2.62;33.99;101459.84;10319490;28;20201;-87
2022/03/06 08:06:03;;;;;;;13.27;9.43;;;;;;;2.44;34.41;101463.03;10303426;28;20206;-88
2022/03/06 08:11:10;;;;;;;14.37;9.17;;;;;;;2.83;33.86;101458.88;10346131;28;20201;-89
2022/03/06 08:16:15;;;;;;;13.63;9.50;;;;;;;2.95;33.57;101462.31;10833626;23;20531;-86
2022/03/06 08:21:18;;;;;;;12.20;9.20;;;;;;;3.01;33.60;101465.16;10344478;28;20737;-89
2022/03/06 08:26:25;;;;;;;12.80;8.70;;;;;;;2.73;34.01;101470.00;10343265;28;20194;-88
2022/03/06 08:31:28;;;;;;;11.47;8.87;;;;;;;2.52;34.33;101476.53;10294959;28;20230;-86
2022/03/06 08:36:34;;;;;;;13.33;9.70;;;;;;;3.01;33.75;101471.56;10334669;28;20225;-91
2022/03/06 08:41:38;;;;;;;11.97;9.17;;;;;;;3.41;32.71;101482.16;10322730;28;20248;-85
2022/03/06 08:46:41;;;;;;;12.97;9.30;;;;;;;3.69;32.15;101478.94;10341994;28;20210;-84
2022/03/06 08:51:44;;;;;;;11.70;9.30;;;;;;;3.19;33.21;101479.53;10326360;28;20226;-87
2022/03/06 08:56:49;;;;;;;13.23;9.27;;;;;;;3.32;32.83;101481.84;10343741;28;20217;-88
2022/03/06 09:01:55;;;;;;;12.67;9.63;;;;;;;2.81;33.39;101486.25;10341686;28;20252;-88
2022/03/06 09:07:00;;;;;;;15.27;9.60;;;;;;;3.52;32.57;101488.66;10338440;28;20268;-88
2022/03/06 09:12:04;;;;;;;14.17;8.83;;;;;;;3.61;32.43;101487.84;10326902;28;20230;-87
2022/03/06 09:17:09;;;;;;;13.37;9.03;;;;;;;3.28;33.26;101496.63;10330792;28;20264;-87
2022/03/06 09:22:13;;;;;;;12.07;8.60;;;;;;;3.25;33.07;101492.44;10357704;28;20205;-87
2022/03/06 09:27:21;;;;;;;11.23;8.70;;;;;;;3.29;32.31;101478.75;10325423;28;20198;-87
2022/03/06 09:32:24;;;;;;;12.83;9.10;;;;;;;3.65;31.71;101488.13;10336999;28;20304;-86
2022/03/06 09:37:27;;;;;;;11.20;9.27;;;;;;;3.63;32.60;101487.56;10342754;28;20249;-87
2022/03/06 09:42:32;;;;;;;11.73;8.90;;;;;;;3.82;31.73;101487.94;10318392;28;20237;-86
2022/03/06 09:47:40;;;;;;;11.67;8.70;;;;;;;3.36;33.01;101496.13;10314916;28;20503;-87
2022/03/06 09:52:44;;;;;;;11.77;9.33;;;;;;;4.30;31.36;101483.81;10346710;28;20266;-88
2022/03/06 09:57:46;;;;;;;11.50;9.13;;;;;;;3.85;32.07;101493.81;10321967;28;20237;-86
2022/03/06 10:02:51;;;;;;;12.73;8.80;;;;;;;3.58;31.97;101498.75;10327815;28;20252;-88
2022/03/06 10:08:18;;;;;;;10.33;8.30;;;;;;;4.01;30.86;101498.31;10327803;28;20264;-85
2022/03/06 10:13:28;;;;;;;10.77;8.80;;;;;;;5.23;29.53;101503.13;10330333;28;20258;-85
2022/03/06 10:18:35;;;;;;;11.80;9.20;;;;;;;3.53;31.95;101496.75;10331721;28;20233;-86
2022/03/06 10:23:38;;;;;;;12.17;8.97;;;;;;;5.21;30.29;101477.34;10332799;28;20291;-85
2022/03/06 10:28:47;;;;;;;10.23;8.13;;;;;;;5.73;28.81;101486.16;10315107;28;20554;-84
2022/03/06 10:34:01;;;;;;;12.43;9.17;;;;;;;5.92;28.38;101482.72;10323839;28;20242;-85
2022/03/06 10:39:25;;;;;;;10.20;7.67;;;;;;;5.36;28.73;101488.53;10310819;28;20237;-87
2022/03/06 10:44:46;;;;;;;10.30;8.30;;;;;;;5.37;27.03;101490.19;10328217;28;20197;-89
2022/03/06 10:50:00;;;;;;;8.87;7.97;;;;;;;6.35;26.84;101476.22;10333301;28;20202;-86
2022/03/06 10:55:04;;;;;;;10.03;8.00;;;;;;;4.81;28.55;101475.47;10332512;28;20245;-89
2022/03/06 11:00:07;;;;;;;9.03;8.13;;;;;;;5.28;28.62;101472.28;10327485;28;20249;-80
2022/03/06 11:05:12;;;;;;;9.20;7.20;;;;;;;4.93;27.32;101474.03;10322760;28;20229;-82
2022/03/06 11:10:16;;;;;;;10.53;8.20;;;;;;;5.97;26.62;101469.47;10313392;28;20598;-87
2022/03/06 11:15:18;;;;;;;10.57;8.37;;;;;;;5.73;26.98;101474.94;10314255;28;20697;-87
2022/03/06 11:20:23;;;;;;;9.13;7.33;;;;;;;5.93;26.69;101456.31;10318310;28;20341;-87
2022/03/06 11:25:30;;;;;;;7.90;6.90;;;;;;;6.20;26.11;101453.88;10324885;28;20213;-86
2022/03/06 11:30:57;;;;;;;9.67;7.50;;;;;;;5.71;25.66;101459.50;10321319;28;20264;-86
2022/03/06 11:36:23;;;;;;;9.50;7.97;;;;;;;5.29;26.81;101466.38;10302198;28;20202;-87
2022/03/06 11:41:36;;;;;;;8.63;7.20;;;;;;;5.33;27.00;101453.47;10334850;28;20221;-85
2022/03/06 11:46:39;;;;;;;10.37;7.57;;;;;;;5.63;26.21;101452.50;10335034;28;20228;-88
2022/03/06 11:51:44;;;;;;;8.03;6.70;;;;;;;6.06;25.50;101444.44;10345923;28;20251;-83
2022/03/06 11:56:58;;;;;;;7.70;6.83;;;;;;;5.27;26.05;101454.63;10336522;28;20248;-86
2022/03/06 12:02:08;;;;;;;8.33;7.23;;;;;;;5.73;25.39;101449.69;10341084;28;20195;-86
2022/03/06 12:07:15;;;;;;;8.83;7.37;;;;;;;5.65;26.44;101450.28;10325308;28;20194;-86
2022/03/06 12:12:21;;;;;;;9.00;7.47;;;;;;;6.95;24.14;101443.16;10316548;28;20272;-88
2022/03/06 12:17:30;;;;;;;8.70;7.47;;;;;;;6.33;24.61;101444.78;10328185;28;20233;-82
2022/03/06 12:22:36;;;;;;;11.27;7.63;;;;;;;6.12;24.71;101440.47;10335987;28;20234;-87
2022/03/06 12:28:03;;;;;;;9.27;7.87;;;;;;;7.23;24.79;101424.56;10311920;28;20299;-85
2022/03/06 12:33:39;;;;;;;9.53;8.03;;;;;;;6.29;24.53;101424.06;10326406;28;20605;-86
2022/03/06 12:38:42;;;;;;;9.10;8.20;;;;;;;5.88;25.40;101436.69;10263416;28;20241;-84
2022/03/06 12:43:56;;;;;;;9.57;8.30;;;;;;;6.68;24.74;101440.00;10313983;28;20241;-86
2022/03/06 12:48:59;;;;;;;9.00;8.07;;;;;;;7.16;24.12;101424.91;10334223;28;20299;-84
2022/03/06 12:54:02;;;;;;;13.00;11.30;;;;;;;6.36;24.23;101435.78;10327434;28;20707;-85
2022/03/06 12:59:10;;;;;;;9.33;8.33;;;;;;;6.22;24.06;101417.91;10330289;28;20299;-83
2022/03/06 13:04:14;;;;;;;10.97;9.23;;;;;;;6.64;23.43;101422.06;10327426;28;20267;-86
2022/03/06 13:09:27;;;;;;;10.80;8.83;;;;;;;6.75;24.79;101415.22;10306488;28;20604;-85
2022/03/06 13:14:35;;;;;;;9.03;7.63;;;;;;;5.74;25.29;101431.72;10333523;28;20636;-84
2022/03/06 13:19:50;;;;;;;7.73;6.80;;;;;;;5.39;26.37;101440.28;10320448;28;20226;-84
2022/03/06 13:24:55;;;;;;;7.80;7.03;;;;;;;5.91;25.84;101430.50;10313799;28;20613;-85
2022/03/06 13:30:11;;;;;;;9.40;7.30;;;;;;;7.18;24.42;101416.16;10312991;28;20279;-88
2022/03/06 13:35:43;;;;;;;7.33;6.57;;;;;;;5.91;25.73;101420.13;10314244;28;20597;-85
2022/03/06 13:40:48;;;;;;;7.33;6.53;;;;;;;5.32;25.70;101422.91;10321134;28;20670;-87
2022/03/06 13:45:55;;;;;;;7.47;5.87;;;;;;;5.52;25.82;101428.44;10318077;28;20630;-86
2022/03/06 13:50:58;;;;;;;9.17;6.53;;;;;;;6.66;25.44;101415.00;10312950;28;20271;-77
2022/03/06 13:56:02;;;;;;;10.10;5.93;;;;;;;6.61;24.71;101417.03;10320373;28;20257;-84
2022/03/06 14:01:05;;;;;;;6.97;5.87;;;;;;;4.78;26.26;101423.63;10303008;28;20261;-84
2022/03/06 14:06:08;;;;;;;6.63;5.40;;;;;;;6.84;24.45;101410.66;10317892;28;20230;-83
2022/03/06 14:11:28;;;;;;;6.90;5.87;;;;;;;5.94;24.64;101419.50;10324029;28;20263;-81
2022/03/06 14:16:32;;;;;;;6.00;5.07;;;;;;;6.35;24.93;101417.25;10328880;28;20602;-86
2022/03/06 14:21:40;;;;;;;7.13;5.27;;;;;;;5.84;25.56;101411.16;10329047;28;20295;-84
2022/03/06 14:26:47;;;;;;;8.07;4.93;;;;;;;5.45;26.48;101425.09;10309839;28;20233;-85
2022/03/06 14:31:52;;;;;;;6.43;5.13;;;;;;;5.61;24.96;101423.06;10315007;28;20303;-87
2022/03/06 14:36:55;;;;;;;7.37;5.33;;;;;;;5.64;24.83;101414.06;10321965;28;20334;-82
2022/03/06 14:42:00;;;;;;;7.83;5.17;;;;;;;6.43;24.67;101416.63;10321993;28;20684;-86
2022/03/06 14:47:02;;;;;;;4.93;4.43;;;;;;;6.38;24.39;101413.03;10311988;28;20737;-86
2022/03/06 14:52:05;;;;;;;5.27;4.33;;;;;;;5.86;24.99;101406.09;10312915;28;20669;-83
2022/03/06 14:57:08;;;;;;;5.30;4.80;;;;;;;5.86;25.02;101419.31;10304154;28;20241;-83
2022/03/06 15:02:10;;;;;;;6.47;4.57;;;;;;;5.92;25.39;101416.19;10317451;28;20233;-81
2022/03/06 15:07:12;;;;;;;5.70;4.80;;;;;;;6.00;25.56;101423.13;10322483;28;20225;-81
2022/03/06 15:12:16;;;;;;;4.23;3.47;;;;;;;4.85;25.66;101424.19;10325889;28;20315;-88
2022/03/06 15:17:18;;;;;;;3.70;3.30;;;;;;;6.29;24.41;101415.63;10316696;28;20268;-85
2022/03/06 15:22:22;;;;;;;4.73;4.20;;;;;;;5.91;25.00;101414.50;10325549;28;20327;-84
2022/03/06 15:27:25;;;;;;;5.77;3.80;;;;;;;6.02;24.55;101410.50;10321534;28;20256;-83
2022/03/06 15:32:29;;;;;;;4.00;3.27;;;;;;;5.40;25.08;101425.13;10315081;28;20246;-87
2022/03/06 15:37:32;;;;;;;4.90;3.50;;;;;;;5.69;25.10;101416.88;10315337;28;20242;-86
2022/03/06 15:42:36;;;;;;;4.10;2.90;;;;;;;5.78;24.92;101427.22;10315876;28;20233;-89
2022/03/06 15:47:40;;;;;;;6.70;3.63;;;;;;;5.43;25.15;101422.56;10311390;28;20688;-86
2022/03/06 15:52:47;;;;;;;4.90;3.70;;;;;;;5.30;25.78;101425.16;10291337;28;20265;-85
2022/03/06 15:57:51;;;;;;;4.17;3.47;;;;;;;5.55;25.62;101419.44;10329481;28;20611;-81
2022/03/06 16:02:54;;;;;;;5.17;3.30;;;;;;;5.48;25.01;101418.91;10324580;28;20802;-81
2022/03/06 16:07:57;;;;;;;5.43;3.77;;;;;;;4.81;26.62;101414.66;10333597;28;20626;-79
2022/03/06 16:13:01;;;;;;;3.90;3.03;;;;;;;3.63;27.67;101432.47;10316479;28;20249;-84
2022/03/06 16:18:04;;;;;;;4.20;3.47;;;;;;;5.11;26.50;101428.59;10324931;28;20265;-82
2022/03/06 16:23:24;;;;;;;4.20;3.30;;;;;;;4.23;26.91;101433.72;10326956;28;20819;-82
2022/03/06 16:28:27;;;;;;;4.10;3.47;;;;;;;4.66;26.40;101434.28;10361091;28;20261;-86
2022/03/06 16:33:30;;;;;;;3.87;3.47;;;;;;;5.13;25.87;101427.47;10335383;28;20229;-81
2022/03/06 16:38:33;;;;;;;6.43;5.50;;;;;;;5.24;25.97;101426.31;10336722;28;20316;-81
2022/03/06 16:43:35;;;;;;;5.83;4.20;;;;;;;4.72;27.28;101435.97;10352396;28;20201;-82
2022/03/06 16:48:37;;;;;;;4.73;3.37;;;;;;;4.14;28.46;101432.59;10356568;28;20233;-82
2022/03/06 16:53:40;;;;;;;5.53;3.50;;;;;;;4.64;27.74;101428.16;10315825;28;20292;-81
2022/03/06 16:58:44;;;;;;;4.13;3.43;;;;;;;4.28;27.52;101430.91;10299036;28;20381;-84
2022/03/06 17:03:46;;;;;;;3.30;3.00;;;;;;;4.41;27.39;101432.31;10326170;28;20268;-81
2022/03/06 17:08:52;;;;;;;3.97;3.20;;;;;;;4.35;27.19;101433.44;10324122;28;20776;-86
2022/03/06 17:13:55;;;;;;;5.97;3.37;;;;;;;4.54;26.92;101445.78;10316087;28;20323;-81
2022/03/06 17:18:57;;;;;;;4.27;3.13;;;;;;;4.73;26.71;101444.09;10315436;28;20232;-81
2022/03/06 17:23:59;;;;;;;3.93;3.30;;;;;;;4.09;28.00;101443.78;10309170;28;20229;-81
2022/03/06 17:29:02;;;;;;;4.00;3.13;;;;;;;4.25;27.27;101448.25;10312505;28;20221;-81
2022/03/06 17:34:06;;;;;;;3.43;2.87;;;;;;;4.37;27.20;101457.25;10305643;28;20622;-86
2022/03/06 17:39:08;;;;;;;4.37;2.97;;;;;;;4.32;28.26;101460.03;10299864;28;20297;-85
2022/03/06 17:44:10;;;;;;;4.57;3.30;;;;;;;4.22;27.61;101459.19;10313819;28;20225;-80
2022/03/06 17:49:13;;;;;;;3.17;2.83;;;;;;;4.29;27.02;101465.34;10332499;28;20272;-81
2022/03/06 17:54:16;;;;;;;5.20;3.33;;;;;;;4.13;27.43;101478.47;10308445;28;20265;-80
2022/03/06 17:59:19;;;;;;;4.30;3.27;;;;;;;4.06;27.59;101480.72;10316554;28;20339;-80
2022/03/06 18:04:21;;;;;;;8.73;4.27;;;;;;;4.28;27.43;101475.69;10321443;28;20268;-81
2022/03/06 18:09:30;;;;;;;7.20;4.37;;;;;;;4.13;27.38;101475.69;10319773;28;20681;-80
2022/03/06 18:14:32;;;;;;;5.53;3.73;;;;;;;4.08;27.83;101481.28;10314073;28;20724;-80
2022/03/06 18:19:36;;;;;;;6.37;4.40;;;;;;;4.04;27.88;101491.34;10304773;28;20576;-80
2022/03/06 18:24:39;;;;;;;6.90;4.07;;;;;;;4.18;27.98;101486.88;10323629;28;20229;-80
2022/03/06 18:29:41;;;;;;;5.10;4.40;;;;;;;4.93;26.92;101488.06;10316754;28;20252;-80
2022/03/06 18:34:43;;;;;;;7.93;4.67;;;;;;;4.34;28.03;101485.81;10311122;28;20253;-81
2022/03/06 18:39:46;;;;;;;7.30;4.00;;;;;;;4.69;27.45;101498.16;10332814;28;20241;-82
2022/03/06 18:44:48;;;;;;;3.97;3.30;;;;;;;3.26;29.38;101510.03;10314659;28;20249;-81
2022/03/06 18:49:51;;;;;;;5.70;3.57;;;;;;;4.60;27.27;101509.09;10309173;28;20866;-81
2022/03/06 18:54:53;;;;;;;7.47;4.33;;;;;;;3.91;28.28;101517.03;10314814;28;20258;-79
2022/03/06 18:59:55;;;;;;;8.10;4.97;;;;;;;4.08;28.06;101514.03;10316828;28;20295;-80
2022/03/06 19:04:57;;;;;;;8.73;5.37;;;;;;;4.22;27.83;101520.78;10321159;28;20280;-79
2022/03/06 19:10:00;;;;;;;8.03;5.10;;;;;;;3.81;28.71;101525.41;10316058;28;20965;-80
2022/03/06 19:15:03;;;;;;;6.03;4.47;;;;;;;4.14;28.39;101518.50;10314527;28;20996;-80
2022/03/06 19:20:06;;;;;;;7.33;4.97;;;;;;;3.93;28.65;101532.44;10323893;28;20268;-79
2022/03/06 19:25:12;;;;;;;6.53;4.93;;;;;;;3.64;28.84;101534.84;10310150;28;20241;-80
2022/03/06 19:30:15;;;;;;;8.20;4.83;;;;;;;3.99;28.69;101533.31;10283799;28;20289;-79
2022/03/06 19:35:17;;;;;;;9.60;5.10;;;;;;;4.08;28.78;101540.06;10309510;28;21217;-79
2022/03/06 19:40:19;;;;;;;11.27;5.37;;;;;;;3.71;29.66;101548.59;10309106;28;20341;-80
2022/03/06 19:45:22;;;;;;;9.77;5.43;;;;;;;3.64;29.41;101553.56;10312538;28;20320;-80
2022/03/06 19:50:28;;;;;;;8.83;5.40;;;;;;;2.97;30.66;101546.69;10308866;28;20288;-83
2022/03/06 19:55:31;;;;;;;9.63;5.57;;;;;;;3.51;29.73;101546.53;10297314;28;20328;-79
2022/03/06 20:00:33;;;;;;;9.07;5.03;;;;;;;3.11;30.58;101543.44;10310815;28;20255;-81
2022/03/06 20:05:36;;;;;;;7.27;5.23;;;;;;;3.09;30.53;101551.25;10319899;28;20241;-80
2022/03/06 20:10:38;;;;;;;7.43;4.73;;;;;;;3.26;29.79;101557.53;10311719;28;20264;-81
2022/03/06 20:15:41;;;;;;;10.50;5.27;;;;;;;2.95;30.40;101557.28;10313708;28;20941;-80
2022/03/06 20:20:43;;;;;;;5.10;4.07;;;;;;;3.30;29.88;101558.69;10316758;28;20572;-79
2022/03/06 20:25:45;;;;;;;6.50;4.90;;;;;;;3.18;30.18;101569.22;10318143;28;20280;-80
2022/03/06 20:30:47;;;;;;;6.87;4.90;;;;;;;3.45;29.62;101567.19;10313902;28;20242;-81
2022/03/06 20:35:52;;;;;;;8.73;5.43;;;;;;;3.13;30.44;101581.19;10301052;28;20253;-79
2022/03/06 20:40:54;;;;;;;6.23;4.73;;;;;;;3.52;29.53;101573.38;10322458;28;20258;-79
2022/03/06 20:45:57;;;;;;;6.13;4.17;;;;;;;2.94;30.34;101583.56;10313441;28;20245;-78
2022/03/06 20:51:00;;;;;;;7.30;5.07;;;;;;;2.85;30.42;101575.91;10340840;28;20237;-79
2022/03/06 20:56:03;;;;;;;7.67;5.30;;;;;;;2.31;31.21;101594.63;10333314;28;20269;-78
2022/03/06 21:01:05;;;;;;;5.53;4.63;;;;;;;3.26;30.28;101586.34;10325072;28;20238;-80
2022/03/06 21:06:12;;;;;;;6.17;5.10;;;;;;;3.21;30.23;101593.84;10329724;28;20678;-80
2022/03/06 21:11:14;;;;;;;7.37;4.90;;;;;;;3.09;30.56;101590.34;10317311;28;20249;-78
2022/03/06 21:16:18;;;;;;;8.03;4.97;;;;;;;2.88;31.29;101584.63;10349498;28;20269;-80
2022/03/06 21:21:21;;;;;;;6.30;4.80;;;;;;;3.27;30.75;101589.97;10314119;28;20309;-83
2022/03/06 21:26:23;;;;;;;8.37;5.23;;;;;;;3.22;30.48;101590.75;10325203;28;20225;-79
2022/03/06 21:31:26;;;;;;;6.70;5.53;;;;;;;3.42;30.12;101589.25;10327299;28;20233;-86
2022/03/06 21:36:29;;;;;;;6.37;5.20;;;;;;;3.47;30.77;101581.72;10315166;28;20336;-81
2022/03/06 21:41:31;;;;;;;7.57;5.73;;;;;;;3.63;30.32;101586.28;10340792;28;20236;-80
2022/03/06 21:46:33;;;;;;;7.93;5.07;;;;;;;3.25;30.81;101583.81;10336088;28;20233;-79
2022/03/06 21:51:36;;;;;;;8.47;6.27;;;;;;;3.08;30.83;101594.28;10320845;28;20260;-79
2022/03/06 21:56:39;;;;;;;7.93;5.97;;;;;;;3.14;31.22;101599.63;10324500;28;20591;-79
2022/03/06 22:01:45;;;;;;;7.33;5.73;;;;;;;2.88;31.85;101587.41;10306926;28;20241;-79
2022/03/06 22:06:48;;;;;;;9.80;6.70;;;;;;;3.05;31.27;101590.06;10357117;28;20229;-79
2022/03/06 22:11:50;;;;;;;8.87;6.27;;;;;;;2.90;31.37;101571.22;10304779;28;20229;-79
2022/03/06 22:16:53;;;;;;;8.77;6.53;;;;;;;2.80;31.59;101582.31;10327798;28;20280;-80
2022/03/06 22:21:56;;;;;;;8.90;6.63;;;;;;;2.92;31.65;101584.94;10338902;28;20237;-80
2022/03/06 22:26:59;;;;;;;9.37;7.00;;;;;;;2.83;31.71;101580.91;10326105;28;20225;-85
2022/03/06 22:32:05;;;;;;;8.00;6.30;;;;;;;2.61;32.00;101589.38;10327052;28;20229;-78
2022/03/06 22:37:07;;;;;;;9.03;7.20;;;;;;;2.55;32.16;101590.47;10325841;28;20294;-79
2022/03/06 22:42:11;;;;;;;8.87;6.33;;;;;;;2.40;32.45;101607.03;10322601;28;20241;-78
2022/03/06 22:47:13;;;;;;;9.07;7.37;;;;;;;2.20;32.68;101586.16;10335395;28;20610;-78
2022/03/06 22:52:16;;;;;;;8.97;6.50;;;;;;;2.11;32.92;101590.53;10327538;28;20241;-78
2022/03/06 22:57:18;;;;;;;10.53;6.93;;;;;;;1.91;33.33;101601.44;10321519;28;20261;-78
2022/03/06 23:02:20;;;;;;;11.93;7.00;;;;;;;2.18;32.96;101585.56;10321723;28;20242;-79
2022/03/06 23:07:23;;;;;;;9.37;6.77;;;;;;;2.14;32.57;101589.16;10334028;28;20290;-78
2022/03/06 23:12:26;;;;;;;9.40;6.60;;;;;;;2.28;32.50;101572.88;10328569;28;20261;-78
2022/03/06 23:17:29;;;;;;;10.23;6.83;;;;;;;1.94;32.57;101588.91;10321825;28;20782;-78
2022/03/06 23:22:31;;;;;;;9.23;6.63;;;;;;;2.01;33.04;101587.63;10323607;28;20307;-78